sensor_id;sensor_type;location;lat;lon;timestamp;temperature;humidity
40960;DHT22;27842;52.272;8.052;2023-04-24T00:00:57;13.60;92.20
40960;DHT22;27842;52.272;8.052;2023-04-24T00:03:24;13.60;92.20
40960;DHT22;27842;52.272;8.052;2023-04-24T00:05:50;13.60;92.20
40960;DHT22;27842;52.272;8.052;2023-04-24T00:08:16;13.70;92.00
40960;DHT22;27842;52.272;8.052;2023-04-24T00:10:42;13.60;91.70
40960;DHT22;27842;52.272;8.052;2023-04-24T00:13:08;13.50;91.90
40960;DHT22;27842;52.272;8.052;2023-04-24T00:15:33;13.50;91.90
40960;DHT22;27842;52.272;8.052;2023-04-24T00:17:59;13.50;91.80
40960;DHT22;27842;52.272;8.052;2023-04-24T00:20:27;13.50;91.80
40960;DHT22;27842;52.272;8.052;2023-04-24T00:22:53;13.50;91.90
40960;DHT22;27842;52.272;8.052;2023-04-24T00:25:19;13.50;91.90
40960;DHT22;27842;52.272;8.052;2023-04-24T00:27:44;13.60;91.60
40960;DHT22;27842;52.272;8.052;2023-04-24T00:30:10;13.50;91.60
40960;DHT22;27842;52.272;8.052;2023-04-24T00:32:36;13.50;91.50
40960;DHT22;27842;52.272;8.052;2023-04-24T00:35:02;13.40;91.60
40960;DHT22;27842;52.272;8.052;2023-04-24T00:37:27;13.40;91.70
40960;DHT22;27842;52.272;8.052;2023-04-24T00:39:54;13.40;91.80
40960;DHT22;27842;52.272;8.052;2023-04-24T00:42:20;13.40;91.80
40960;DHT22;27842;52.272;8.052;2023-04-24T00:44:45;13.40;91.80
40960;DHT22;27842;52.272;8.052;2023-04-24T00:47:11;13.40;91.50
40960;DHT22;27842;52.272;8.052;2023-04-24T00:49:38;13.40;91.50
40960;DHT22;27842;52.272;8.052;2023-04-24T00:52:03;13.40;91.50
40960;DHT22;27842;52.272;8.052;2023-04-24T00:54:33;13.50;91.20
40960;DHT22;27842;52.272;8.052;2023-04-24T00:56:58;13.40;91.20
40960;DHT22;27842;52.272;8.052;2023-04-24T00:59:24;13.40;91.10
40960;DHT22;27842;52.272;8.052;2023-04-24T01:01:50;13.40;91.20
40960;DHT22;27842;52.272;8.052;2023-04-24T01:04:17;13.40;91.10
40960;DHT22;27842;52.272;8.052;2023-04-24T01:06:44;13.40;91.10
40960;DHT22;27842;52.272;8.052;2023-04-24T01:09:11;13.30;91.10
40960;DHT22;27842;52.272;8.052;2023-04-24T01:11:37;13.30;91.10
40960;DHT22;27842;52.272;8.052;2023-04-24T01:14:03;13.30;91.30
40960;DHT22;27842;52.272;8.052;2023-04-24T01:16:29;13.20;91.30
40960;DHT22;27842;52.272;8.052;2023-04-24T01:18:55;13.20;91.20
40960;DHT22;27842;52.272;8.052;2023-04-24T01:21:21;13.30;91.30
40960;DHT22;27842;52.272;8.052;2023-04-24T01:23:47;13.20;91.30
40960;DHT22;27842;52.272;8.052;2023-04-24T01:26:16;13.30;91.10
40960;DHT22;27842;52.272;8.052;2023-04-24T01:28:42;13.30;91.10
40960;DHT22;27842;52.272;8.052;2023-04-24T01:31:08;13.20;91.10
40960;DHT22;27842;52.272;8.052;2023-04-24T01:33:34;13.30;91.30
40960;DHT22;27842;52.272;8.052;2023-04-24T01:35:59;13.30;90.90
40960;DHT22;27842;52.272;8.052;2023-04-24T01:38:25;13.30;90.90
40960;DHT22;27842;52.272;8.052;2023-04-24T01:40:51;13.30;90.80
40960;DHT22;27842;52.272;8.052;2023-04-24T01:43:17;13.30;90.80
40960;DHT22;27842;52.272;8.052;2023-04-24T01:45:43;13.30;90.70
40960;DHT22;27842;52.272;8.052;2023-04-24T01:48:09;13.20;90.70
40960;DHT22;27842;52.272;8.052;2023-04-24T01:50:35;13.20;90.80
40960;DHT22;27842;52.272;8.052;2023-04-24T01:53:00;13.20;90.70
40960;DHT22;27842;52.272;8.052;2023-04-24T01:55:26;13.30;90.60
40960;DHT22;27842;52.272;8.052;2023-04-24T01:57:55;13.30;90.50
40960;DHT22;27842;52.272;8.052;2023-04-24T02:00:21;13.30;90.40
40960;DHT22;27842;52.272;8.052;2023-04-24T02:02:47;13.20;90.50
40960;DHT22;27842;52.272;8.052;2023-04-24T02:05:12;13.20;90.40
40960;DHT22;27842;52.272;8.052;2023-04-24T02:07:38;13.20;90.30
40960;DHT22;27842;52.272;8.052;2023-04-24T02:10:04;13.20;90.30
40960;DHT22;27842;52.272;8.052;2023-04-24T02:12:30;13.20;90.30
40960;DHT22;27842;52.272;8.052;2023-04-24T02:14:55;13.20;90.30
40960;DHT22;27842;52.272;8.052;2023-04-24T02:17:21;13.10;90.30
40960;DHT22;27842;52.272;8.052;2023-04-24T02:19:46;13.20;90.20
40960;DHT22;27842;52.272;8.052;2023-04-24T02:22:12;13.20;90.40
40960;DHT22;27842;52.272;8.052;2023-04-24T02:24:38;13.10;90.30
40960;DHT22;27842;52.272;8.052;2023-04-24T02:27:04;13.10;90.30
40960;DHT22;27842;52.272;8.052;2023-04-24T02:29:33;13.20;90.40
40960;DHT22;27842;52.272;8.052;2023-04-24T02:31:59;13.10;90.30
40960;DHT22;27842;52.272;8.052;2023-04-24T02:34:24;13.10;90.40
40960;DHT22;27842;52.272;8.052;2023-04-24T02:36:50;13.10;90.50
40960;DHT22;27842;52.272;8.052;2023-04-24T02:39:16;13.10;90.50
40960;DHT22;27842;52.272;8.052;2023-04-24T02:41:43;13.10;90.40
40960;DHT22;27842;52.272;8.052;2023-04-24T02:44:09;13.10;90.40
40960;DHT22;27842;52.272;8.052;2023-04-24T02:46:35;13.10;90.30
40960;DHT22;27842;52.272;8.052;2023-04-24T02:49:00;13.00;90.30
40960;DHT22;27842;52.272;8.052;2023-04-24T02:51:26;13.00;90.30
40960;DHT22;27842;52.272;8.052;2023-04-24T02:53:52;13.00;90.40
40960;DHT22;27842;52.272;8.052;2023-04-24T02:56:18;13.00;90.40
40960;DHT22;27842;52.272;8.052;2023-04-24T02:58:43;13.00;90.40
40960;DHT22;27842;52.272;8.052;2023-04-24T03:01:09;13.00;90.50
40960;DHT22;27842;52.272;8.052;2023-04-24T03:03:38;13.00;90.50
40960;DHT22;27842;52.272;8.052;2023-04-24T03:06:04;13.10;90.40
40960;DHT22;27842;52.272;8.052;2023-04-24T03:08:31;13.00;90.40
40960;DHT22;27842;52.272;8.052;2023-04-24T03:10:57;13.00;90.50
40960;DHT22;27842;52.272;8.052;2023-04-24T03:13:22;12.90;90.50
40960;DHT22;27842;52.272;8.052;2023-04-24T03:15:48;12.90;90.50
40960;DHT22;27842;52.272;8.052;2023-04-24T03:18:13;12.90;90.60
40960;DHT22;27842;52.272;8.052;2023-04-24T03:20:39;12.90;90.60
40960;DHT22;27842;52.272;8.052;2023-04-24T03:23:05;12.90;90.60
40960;DHT22;27842;52.272;8.052;2023-04-24T03:25:30;12.90;90.50
40960;DHT22;27842;52.272;8.052;2023-04-24T03:27:56;12.90;90.50
40960;DHT22;27842;52.272;8.052;2023-04-24T03:30:22;12.90;90.60
40960;DHT22;27842;52.272;8.052;2023-04-24T03:32:47;12.90;90.50
40960;DHT22;27842;52.272;8.052;2023-04-24T03:35:13;12.90;90.60
40960;DHT22;27842;52.272;8.052;2023-04-24T03:37:39;12.90;90.60
40960;DHT22;27842;52.272;8.052;2023-04-24T03:40:05;12.90;90.60
40960;DHT22;27842;52.272;8.052;2023-04-24T03:42:32;12.80;90.50
40960;DHT22;27842;52.272;8.052;2023-04-24T03:44:57;12.90;90.50
40960;DHT22;27842;52.272;8.052;2023-04-24T03:47:23;12.90;90.30
40960;DHT22;27842;52.272;8.052;2023-04-24T03:49:49;12.90;90.20
40960;DHT22;27842;52.272;8.052;2023-04-24T03:52:14;12.80;90.30
40960;DHT22;27842;52.272;8.052;2023-04-24T03:54:40;12.60;90.50
40960;DHT22;27842;52.272;8.052;2023-04-24T03:57:05;12.60;90.60
40960;DHT22;27842;52.272;8.052;2023-04-24T03:59:31;12.50;90.60
40960;DHT22;27842;52.272;8.052;2023-04-24T04:01:56;12.50;90.80
40960;DHT22;27842;52.272;8.052;2023-04-24T04:04:22;12.40;90.80
40960;DHT22;27842;52.272;8.052;2023-04-24T04:06:48;12.30;90.90
40960;DHT22;27842;52.272;8.052;2023-04-24T04:09:14;12.40;90.90
40960;DHT22;27842;52.272;8.052;2023-04-24T04:11:40;12.30;91.00
40960;DHT22;27842;52.272;8.052;2023-04-24T04:14:06;12.30;91.10
40960;DHT22;27842;52.272;8.052;2023-04-24T04:16:32;12.30;91.00
40960;DHT22;27842;52.272;8.052;2023-04-24T04:18:57;12.30;91.00
40960;DHT22;27842;52.272;8.052;2023-04-24T04:21:23;12.30;91.00
40960;DHT22;27842;52.272;8.052;2023-04-24T04:23:49;12.30;91.20
40960;DHT22;27842;52.272;8.052;2023-04-24T04:26:15;12.30;91.10
40960;DHT22;27842;52.272;8.052;2023-04-24T04:28:40;12.20;91.10
40960;DHT22;27842;52.272;8.052;2023-04-24T04:31:06;12.20;91.10
40960;DHT22;27842;52.272;8.052;2023-04-24T04:33:33;12.20;91.30
40960;DHT22;27842;52.272;8.052;2023-04-24T04:35:59;12.20;91.30
40960;DHT22;27842;52.272;8.052;2023-04-24T04:38:25;12.20;91.30
40960;DHT22;27842;52.272;8.052;2023-04-24T04:40:55;12.20;91.30
40960;DHT22;27842;52.272;8.052;2023-04-24T04:43:23;12.10;91.40
40960;DHT22;27842;52.272;8.052;2023-04-24T04:45:49;12.10;91.40
40960;DHT22;27842;52.272;8.052;2023-04-24T04:48:17;12.20;91.40
40960;DHT22;27842;52.272;8.052;2023-04-24T04:50:43;12.10;91.40
40960;DHT22;27842;52.272;8.052;2023-04-24T04:53:08;12.20;91.30
40960;DHT22;27842;52.272;8.052;2023-04-24T04:55:34;12.10;91.40
40960;DHT22;27842;52.272;8.052;2023-04-24T04:58:00;12.20;91.40
40960;DHT22;27842;52.272;8.052;2023-04-24T05:00:26;12.00;91.40
40960;DHT22;27842;52.272;8.052;2023-04-24T05:02:52;12.00;91.50
40960;DHT22;27842;52.272;8.052;2023-04-24T05:05:18;12.10;91.40
40960;DHT22;27842;52.272;8.052;2023-04-24T05:07:44;12.00;91.50
40960;DHT22;27842;52.272;8.052;2023-04-24T05:10:10;12.00;91.60
40960;DHT22;27842;52.272;8.052;2023-04-24T05:12:36;12.00;91.70
40960;DHT22;27842;52.272;8.052;2023-04-24T05:15:02;11.90;91.70
40960;DHT22;27842;52.272;8.052;2023-04-24T05:17:28;11.90;91.70
40960;DHT22;27842;52.272;8.052;2023-04-24T05:19:54;11.90;91.80
40960;DHT22;27842;52.272;8.052;2023-04-24T05:22:19;11.90;91.80
40960;DHT22;27842;52.272;8.052;2023-04-24T05:24:46;12.00;91.70
40960;DHT22;27842;52.272;8.052;2023-04-24T05:27:12;11.90;91.70
40960;DHT22;27842;52.272;8.052;2023-04-24T05:29:38;12.10;91.70
40960;DHT22;27842;52.272;8.052;2023-04-24T05:32:04;12.00;91.70
40960;DHT22;27842;52.272;8.052;2023-04-24T05:34:30;11.90;91.70
40960;DHT22;27842;52.272;8.052;2023-04-24T05:36:55;11.90;91.80
40960;DHT22;27842;52.272;8.052;2023-04-24T05:39:21;11.90;91.80
40960;DHT22;27842;52.272;8.052;2023-04-24T05:41:47;11.90;91.90
40960;DHT22;27842;52.272;8.052;2023-04-24T05:44:12;11.80;91.90
40960;DHT22;27842;52.272;8.052;2023-04-24T05:46:38;12.00;91.90
40960;DHT22;27842;52.272;8.052;2023-04-24T05:49:03;11.90;91.80
40960;DHT22;27842;52.272;8.052;2023-04-24T05:51:29;12.00;91.90
40960;DHT22;27842;52.272;8.052;2023-04-24T05:53:55;11.90;91.90
40960;DHT22;27842;52.272;8.052;2023-04-24T05:56:21;12.00;92.00
40960;DHT22;27842;52.272;8.052;2023-04-24T05:58:47;12.00;91.90
40960;DHT22;27842;52.272;8.052;2023-04-24T06:01:13;12.00;92.00
40960;DHT22;27842;52.272;8.052;2023-04-24T06:03:40;12.00;91.90
40960;DHT22;27842;52.272;8.052;2023-04-24T06:06:07;12.00;92.00
40960;DHT22;27842;52.272;8.052;2023-04-24T06:08:33;12.10;92.00
40960;DHT22;27842;52.272;8.052;2023-04-24T06:10:59;12.10;91.90
40960;DHT22;27842;52.272;8.052;2023-04-24T06:13:24;12.00;92.00
40960;DHT22;27842;52.272;8.052;2023-04-24T06:15:50;12.10;92.00
40960;DHT22;27842;52.272;8.052;2023-04-24T06:18:16;12.00;91.90
40960;DHT22;27842;52.272;8.052;2023-04-24T06:20:42;12.00;92.00
40960;DHT22;27842;52.272;8.052;2023-04-24T06:23:07;12.00;92.10
40960;DHT22;27842;52.272;8.052;2023-04-24T06:25:33;12.00;92.00
40960;DHT22;27842;52.272;8.052;2023-04-24T06:27:59;12.00;92.10
40960;DHT22;27842;52.272;8.052;2023-04-24T06:30:25;12.00;92.10
40960;DHT22;27842;52.272;8.052;2023-04-24T06:32:51;12.00;92.00
40960;DHT22;27842;52.272;8.052;2023-04-24T06:35:17;12.00;92.00
40960;DHT22;27842;52.272;8.052;2023-04-24T06:37:43;12.00;92.00
40960;DHT22;27842;52.272;8.052;2023-04-24T06:40:09;12.10;91.80
40960;DHT22;27842;52.272;8.052;2023-04-24T06:42:35;12.00;91.90
40960;DHT22;27842;52.272;8.052;2023-04-24T06:45:01;12.00;92.00
40960;DHT22;27842;52.272;8.052;2023-04-24T06:47:27;12.00;91.90
40960;DHT22;27842;52.272;8.052;2023-04-24T06:49:53;12.00;91.90
40960;DHT22;27842;52.272;8.052;2023-04-24T06:52:19;12.00;91.90
40960;DHT22;27842;52.272;8.052;2023-04-24T06:54:45;12.00;91.90
40960;DHT22;27842;52.272;8.052;2023-04-24T06:57:10;12.00;91.90
40960;DHT22;27842;52.272;8.052;2023-04-24T06:59:36;12.00;92.00
40960;DHT22;27842;52.272;8.052;2023-04-24T07:02:02;12.00;92.00
40960;DHT22;27842;52.272;8.052;2023-04-24T07:04:28;12.00;92.10
40960;DHT22;27842;52.272;8.052;2023-04-24T07:06:54;11.90;92.00
40960;DHT22;27842;52.272;8.052;2023-04-24T07:09:21;11.90;92.10
40960;DHT22;27842;52.272;8.052;2023-04-24T07:11:47;11.90;92.10
40960;DHT22;27842;52.272;8.052;2023-04-24T07:14:13;11.90;92.00
40960;DHT22;27842;52.272;8.052;2023-04-24T07:16:39;12.00;92.00
40960;DHT22;27842;52.272;8.052;2023-04-24T07:19:05;11.90;92.00
40960;DHT22;27842;52.272;8.052;2023-04-24T07:21:31;11.90;92.10
40960;DHT22;27842;52.272;8.052;2023-04-24T07:23:58;11.90;92.00
40960;DHT22;27842;52.272;8.052;2023-04-24T07:26:24;11.90;92.00
40960;DHT22;27842;52.272;8.052;2023-04-24T07:28:50;11.90;92.10
40960;DHT22;27842;52.272;8.052;2023-04-24T07:31:16;11.90;92.10
40960;DHT22;27842;52.272;8.052;2023-04-24T07:33:41;11.90;92.10
40960;DHT22;27842;52.272;8.052;2023-04-24T07:36:09;11.90;92.10
40960;DHT22;27842;52.272;8.052;2023-04-24T07:38:45;11.90;92.00
40960;DHT22;27842;52.272;8.052;2023-04-24T07:41:11;11.90;92.10
40960;DHT22;27842;52.272;8.052;2023-04-24T07:43:37;11.90;92.10
40960;DHT22;27842;52.272;8.052;2023-04-24T07:46:02;11.90;92.10
40960;DHT22;27842;52.272;8.052;2023-04-24T07:48:28;11.80;92.10
40960;DHT22;27842;52.272;8.052;2023-04-24T07:50:54;11.80;92.30
40960;DHT22;27842;52.272;8.052;2023-04-24T07:53:19;11.80;92.30
40960;DHT22;27842;52.272;8.052;2023-04-24T07:55:46;11.80;92.30
40960;DHT22;27842;52.272;8.052;2023-04-24T07:58:11;11.90;92.10
40960;DHT22;27842;52.272;8.052;2023-04-24T08:00:37;11.90;92.20
40960;DHT22;27842;52.272;8.052;2023-04-24T08:03:03;12.00;92.00
40960;DHT22;27842;52.272;8.052;2023-04-24T08:05:29;12.00;92.10
40960;DHT22;27842;52.272;8.052;2023-04-24T08:07:55;11.90;92.10
40960;DHT22;27842;52.272;8.052;2023-04-24T08:10:22;11.90;92.20
40960;DHT22;27842;52.272;8.052;2023-04-24T08:12:48;11.90;92.20
40960;DHT22;27842;52.272;8.052;2023-04-24T08:15:13;11.80;92.20
40960;DHT22;27842;52.272;8.052;2023-04-24T08:17:39;11.90;92.30
40960;DHT22;27842;52.272;8.052;2023-04-24T08:20:06;11.80;92.50
40960;DHT22;27842;52.272;8.052;2023-04-24T08:22:35;11.80;92.40
40960;DHT22;27842;52.272;8.052;2023-04-24T08:25:01;11.80;92.90
40960;DHT22;27842;52.272;8.052;2023-04-24T08:27:27;11.70;92.60
40960;DHT22;27842;52.272;8.052;2023-04-24T08:29:53;11.70;92.80
40960;DHT22;27842;52.272;8.052;2023-04-24T08:32:19;11.70;92.80
40960;DHT22;27842;52.272;8.052;2023-04-24T08:34:45;11.70;93.00
40960;DHT22;27842;52.272;8.052;2023-04-24T08:37:11;11.60;92.80
40960;DHT22;27842;52.272;8.052;2023-04-24T08:39:37;11.60;92.90
40960;DHT22;27842;52.272;8.052;2023-04-24T08:42:04;11.60;93.00
40960;DHT22;27842;52.272;8.052;2023-04-24T08:44:33;11.60;93.00
40960;DHT22;27842;52.272;8.052;2023-04-24T08:47:01;11.50;93.00
40960;DHT22;27842;52.272;8.052;2023-04-24T08:49:27;11.50;93.10
40960;DHT22;27842;52.272;8.052;2023-04-24T08:51:53;11.60;93.10
40960;DHT22;27842;52.272;8.052;2023-04-24T08:54:19;11.60;93.10
40960;DHT22;27842;52.272;8.052;2023-04-24T08:56:45;11.60;93.00
40960;DHT22;27842;52.272;8.052;2023-04-24T08:59:12;11.60;92.90
40960;DHT22;27842;52.272;8.052;2023-04-24T09:01:40;11.70;92.80
40960;DHT22;27842;52.272;8.052;2023-04-24T09:04:07;11.70;92.80
40960;DHT22;27842;52.272;8.052;2023-04-24T09:06:35;11.70;92.70
40960;DHT22;27842;52.272;8.052;2023-04-24T09:09:01;11.70;92.70
40960;DHT22;27842;52.272;8.052;2023-04-24T09:11:32;11.60;92.70
40960;DHT22;27842;52.272;8.052;2023-04-24T09:13:58;11.70;92.70
40960;DHT22;27842;52.272;8.052;2023-04-24T09:16:26;11.70;92.80
40960;DHT22;27842;52.272;8.052;2023-04-24T09:18:52;11.80;92.50
40960;DHT22;27842;52.272;8.052;2023-04-24T09:21:20;11.70;92.50
40960;DHT22;27842;52.272;8.052;2023-04-24T09:23:46;11.60;92.60
40960;DHT22;27842;52.272;8.052;2023-04-24T09:26:12;11.70;92.70
40960;DHT22;27842;52.272;8.052;2023-04-24T09:28:40;11.60;92.70
40960;DHT22;27842;52.272;8.052;2023-04-24T09:31:13;11.60;92.70
40960;DHT22;27842;52.272;8.052;2023-04-24T09:33:40;11.70;92.80
40960;DHT22;27842;52.272;8.052;2023-04-24T09:36:06;11.80;92.50
40960;DHT22;27842;52.272;8.052;2023-04-24T09:38:36;11.70;92.50
40960;DHT22;27842;52.272;8.052;2023-04-24T09:41:10;11.60;92.80
40960;DHT22;27842;52.272;8.052;2023-04-24T09:43:40;11.60;92.60
40960;DHT22;27842;52.272;8.052;2023-04-24T09:46:11;11.60;92.70
40960;DHT22;27842;52.272;8.052;2023-04-24T09:48:38;11.60;92.70
40960;DHT22;27842;52.272;8.052;2023-04-24T09:51:07;11.50;92.80
40960;DHT22;27842;52.272;8.052;2023-04-24T09:53:35;11.50;92.80
40960;DHT22;27842;52.272;8.052;2023-04-24T09:56:09;11.50;92.90
40960;DHT22;27842;52.272;8.052;2023-04-24T09:58:36;11.60;93.20
40960;DHT22;27842;52.272;8.052;2023-04-24T10:01:02;11.60;93.40
40960;DHT22;27842;52.272;8.052;2023-04-24T10:03:32;11.50;92.90
40960;DHT22;27842;52.272;8.052;2023-04-24T10:06:02;11.50;93.30
40960;DHT22;27842;52.272;8.052;2023-04-24T10:08:34;11.50;93.60
40960;DHT22;27842;52.272;8.052;2023-04-24T10:11:01;11.50;93.40
40960;DHT22;27842;52.272;8.052;2023-04-24T10:13:28;11.50;93.40
40960;DHT22;27842;52.272;8.052;2023-04-24T10:15:54;11.50;93.40
40960;DHT22;27842;52.272;8.052;2023-04-24T10:18:20;11.50;93.50
40960;DHT22;27842;52.272;8.052;2023-04-24T10:20:47;11.40;93.80
40960;DHT22;27842;52.272;8.052;2023-04-24T10:23:14;11.50;93.80
40960;DHT22;27842;52.272;8.052;2023-04-24T10:25:43;11.50;93.80
40960;DHT22;27842;52.272;8.052;2023-04-24T10:28:13;11.50;93.80
40960;DHT22;27842;52.272;8.052;2023-04-24T10:30:42;11.50;93.80
40960;DHT22;27842;52.272;8.052;2023-04-24T10:33:08;11.60;94.00
40960;DHT22;27842;52.272;8.052;2023-04-24T10:35:37;11.60;94.10
40960;DHT22;27842;52.272;8.052;2023-04-24T10:38:08;11.50;94.20
40960;DHT22;27842;52.272;8.052;2023-04-24T10:40:35;11.50;94.20
40960;DHT22;27842;52.272;8.052;2023-04-24T10:43:08;11.40;94.10
40960;DHT22;27842;52.272;8.052;2023-04-24T10:45:37;11.40;94.40
40960;DHT22;27842;52.272;8.052;2023-04-24T10:48:04;11.40;94.30
40960;DHT22;27842;52.272;8.052;2023-04-24T10:50:44;11.30;94.50
40960;DHT22;27842;52.272;8.052;2023-04-24T10:53:16;11.20;94.50
40960;DHT22;27842;52.272;8.052;2023-04-24T10:55:49;11.30;94.50
40960;DHT22;27842;52.272;8.052;2023-04-24T10:58:18;11.20;94.50
40960;DHT22;27842;52.272;8.052;2023-04-24T11:00:56;11.10;94.60
40960;DHT22;27842;52.272;8.052;2023-04-24T11:03:24;11.00;94.90
40960;DHT22;27842;52.272;8.052;2023-04-24T11:05:55;10.90;95.00
40960;DHT22;27842;52.272;8.052;2023-04-24T11:08:30;10.90;95.00
40960;DHT22;27842;52.272;8.052;2023-04-24T11:11:02;10.90;95.30
40960;DHT22;27842;52.272;8.052;2023-04-24T11:16:54;10.80;95.50
40960;DHT22;27842;52.272;8.052;2023-04-24T11:19:24;10.80;95.50
40960;DHT22;27842;52.272;8.052;2023-04-24T11:22:13;10.80;95.50
40960;DHT22;27842;52.272;8.052;2023-04-24T11:27:17;10.70;95.70
40960;DHT22;27842;52.272;8.052;2023-04-24T11:30:00;10.70;95.70
40960;DHT22;27842;52.272;8.052;2023-04-24T11:35:18;10.70;95.90
40960;DHT22;27842;52.272;8.052;2023-04-24T11:37:49;10.70;96.40
40960;DHT22;27842;52.272;8.052;2023-04-24T11:40:16;10.60;96.60
40960;DHT22;27842;52.272;8.052;2023-04-24T11:42:49;10.60;96.50
40960;DHT22;27842;52.272;8.052;2023-04-24T11:45:23;10.60;96.80
40960;DHT22;27842;52.272;8.052;2023-04-24T11:47:51;10.50;96.70
40960;DHT22;27842;52.272;8.052;2023-04-24T11:50:18;10.50;96.90
40960;DHT22;27842;52.272;8.052;2023-04-24T11:52:46;10.60;97.00
40960;DHT22;27842;52.272;8.052;2023-04-24T11:57:55;10.50;97.20
40960;DHT22;27842;52.272;8.052;2023-04-24T12:00:29;10.50;97.30
40960;DHT22;27842;52.272;8.052;2023-04-24T12:03:09;10.50;97.40
40960;DHT22;27842;52.272;8.052;2023-04-24T12:05:37;10.60;97.60
40960;DHT22;27842;52.272;8.052;2023-04-24T12:08:03;10.50;97.40
40960;DHT22;27842;52.272;8.052;2023-04-24T12:10:31;10.60;97.60
40960;DHT22;27842;52.272;8.052;2023-04-24T12:12:57;10.60;97.50
40960;DHT22;27842;52.272;8.052;2023-04-24T12:15:24;10.60;97.60
40960;DHT22;27842;52.272;8.052;2023-04-24T12:17:54;10.60;97.50
40960;DHT22;27842;52.272;8.052;2023-04-24T12:20:28;10.60;97.60
40960;DHT22;27842;52.272;8.052;2023-04-24T12:22:55;10.60;97.90
40960;DHT22;27842;52.272;8.052;2023-04-24T12:25:24;10.60;97.70
40960;DHT22;27842;52.272;8.052;2023-04-24T12:28:11;10.60;97.70
40960;DHT22;27842;52.272;8.052;2023-04-24T12:30:44;10.60;97.70
40960;DHT22;27842;52.272;8.052;2023-04-24T12:33:10;10.60;97.90
40960;DHT22;27842;52.272;8.052;2023-04-24T12:35:36;10.50;98.10
40960;DHT22;27842;52.272;8.052;2023-04-24T12:38:12;10.50;98.00
40960;DHT22;27842;52.272;8.052;2023-04-24T12:40:40;10.50;98.10
40960;DHT22;27842;52.272;8.052;2023-04-24T12:43:14;10.40;98.10
40960;DHT22;27842;52.272;8.052;2023-04-24T12:45:40;10.40;98.30
40960;DHT22;27842;52.272;8.052;2023-04-24T12:48:06;10.40;98.30
40960;DHT22;27842;52.272;8.052;2023-04-24T12:50:31;10.40;98.20
40960;DHT22;27842;52.272;8.052;2023-04-24T12:52:57;10.40;98.20
40960;DHT22;27842;52.272;8.052;2023-04-24T12:55:23;10.30;98.20
40960;DHT22;27842;52.272;8.052;2023-04-24T12:57:48;10.40;98.30
40960;DHT22;27842;52.272;8.052;2023-04-24T13:00:14;10.40;98.20
40960;DHT22;27842;52.272;8.052;2023-04-24T13:02:40;10.40;98.20
40960;DHT22;27842;52.272;8.052;2023-04-24T13:05:06;10.40;98.20
40960;DHT22;27842;52.272;8.052;2023-04-24T13:07:33;10.40;98.40
40960;DHT22;27842;52.272;8.052;2023-04-24T13:09:59;10.40;98.20
40960;DHT22;27842;52.272;8.052;2023-04-24T13:12:25;10.40;98.30
40960;DHT22;27842;52.272;8.052;2023-04-24T13:14:52;10.40;98.30
40960;DHT22;27842;52.272;8.052;2023-04-24T13:17:17;10.30;98.30
40960;DHT22;27842;52.272;8.052;2023-04-24T13:19:46;10.30;98.30
40960;DHT22;27842;52.272;8.052;2023-04-24T13:22:18;10.40;98.50
40960;DHT22;27842;52.272;8.052;2023-04-24T13:24:46;10.40;98.50
40960;DHT22;27842;52.272;8.052;2023-04-24T13:27:14;10.40;98.30
40960;DHT22;27842;52.272;8.052;2023-04-24T13:29:40;10.30;98.60
40960;DHT22;27842;52.272;8.052;2023-04-24T13:32:06;10.30;98.50
40960;DHT22;27842;52.272;8.052;2023-04-24T13:34:32;10.30;98.60
40960;DHT22;27842;52.272;8.052;2023-04-24T13:36:58;10.40;98.60
40960;DHT22;27842;52.272;8.052;2023-04-24T13:39:24;10.40;98.60
40960;DHT22;27842;52.272;8.052;2023-04-24T13:41:50;10.50;98.60
40960;DHT22;27842;52.272;8.052;2023-04-24T13:44:17;10.50;98.40
40960;DHT22;27842;52.272;8.052;2023-04-24T13:46:44;10.50;98.50
40960;DHT22;27842;52.272;8.052;2023-04-24T13:49:12;10.50;98.60
40960;DHT22;27842;52.272;8.052;2023-04-24T13:51:38;10.60;98.50
40960;DHT22;27842;52.272;8.052;2023-04-24T13:54:04;10.60;98.40
40960;DHT22;27842;52.272;8.052;2023-04-24T13:56:30;10.60;98.40
40960;DHT22;27842;52.272;8.052;2023-04-24T13:59:14;10.70;98.40
40960;DHT22;27842;52.272;8.052;2023-04-24T14:01:40;10.70;98.40
40960;DHT22;27842;52.272;8.052;2023-04-24T14:04:06;10.70;98.40
40960;DHT22;27842;52.272;8.052;2023-04-24T14:06:31;10.70;98.20
40960;DHT22;27842;52.272;8.052;2023-04-24T14:08:57;10.70;98.20
40960;DHT22;27842;52.272;8.052;2023-04-24T14:11:23;10.80;98.30
40960;DHT22;27842;52.272;8.052;2023-04-24T14:13:48;10.70;98.10
40960;DHT22;27842;52.272;8.052;2023-04-24T14:16:14;10.80;98.00
40960;DHT22;27842;52.272;8.052;2023-04-24T14:18:40;10.80;98.00
40960;DHT22;27842;52.272;8.052;2023-04-24T14:21:06;10.80;97.80
40960;DHT22;27842;52.272;8.052;2023-04-24T14:23:31;10.80;97.30
40960;DHT22;27842;52.272;8.052;2023-04-24T14:25:58;10.80;97.50
40960;DHT22;27842;52.272;8.052;2023-04-24T14:28:24;10.90;97.50
40960;DHT22;27842;52.272;8.052;2023-04-24T14:30:50;10.90;97.10
40960;DHT22;27842;52.272;8.052;2023-04-24T14:33:16;10.90;97.20
40960;DHT22;27842;52.272;8.052;2023-04-24T14:35:42;10.90;97.10
40960;DHT22;27842;52.272;8.052;2023-04-24T14:38:08;10.80;97.20
40960;DHT22;27842;52.272;8.052;2023-04-24T14:40:34;10.80;97.20
40960;DHT22;27842;52.272;8.052;2023-04-24T14:43:00;10.80;97.00
40960;DHT22;27842;52.272;8.052;2023-04-24T14:45:26;10.80;97.00
40960;DHT22;27842;52.272;8.052;2023-04-24T14:47:53;10.80;97.10
40960;DHT22;27842;52.272;8.052;2023-04-24T14:50:18;10.70;97.20
40960;DHT22;27842;52.272;8.052;2023-04-24T14:52:44;10.60;97.20
40960;DHT22;27842;52.272;8.052;2023-04-24T14:55:10;10.60;97.20
40960;DHT22;27842;52.272;8.052;2023-04-24T14:57:39;10.60;97.30
40960;DHT22;27842;52.272;8.052;2023-04-24T15:00:05;10.60;97.30
40960;DHT22;27842;52.272;8.052;2023-04-24T15:02:33;10.60;97.40
40960;DHT22;27842;52.272;8.052;2023-04-24T15:04:59;10.50;97.40
40960;DHT22;27842;52.272;8.052;2023-04-24T15:07:25;10.50;97.40
40960;DHT22;27842;52.272;8.052;2023-04-24T15:09:50;10.50;97.30
40960;DHT22;27842;52.272;8.052;2023-04-24T15:12:16;10.50;97.40
40960;DHT22;27842;52.272;8.052;2023-04-24T15:14:42;10.50;97.40
40960;DHT22;27842;52.272;8.052;2023-04-24T15:17:07;10.50;97.40
40960;DHT22;27842;52.272;8.052;2023-04-24T15:19:33;10.50;97.40
40960;DHT22;27842;52.272;8.052;2023-04-24T15:21:59;10.40;97.60
40960;DHT22;27842;52.272;8.052;2023-04-24T15:24:24;10.50;97.20
40960;DHT22;27842;52.272;8.052;2023-04-24T15:26:50;10.50;97.10
40960;DHT22;27842;52.272;8.052;2023-04-24T15:29:16;10.50;97.00
40960;DHT22;27842;52.272;8.052;2023-04-24T15:31:41;10.50;97.00
40960;DHT22;27842;52.272;8.052;2023-04-24T15:34:07;10.50;97.00
40960;DHT22;27842;52.272;8.052;2023-04-24T15:36:34;10.50;97.00
40960;DHT22;27842;52.272;8.052;2023-04-24T15:39:01;10.50;96.90